Time;durP1;ratioP1;P1;durP2;ratioP2;P2;SDS_P1;SDS_P2;PMS_P1;PMS_P2;Temp;Humidity;BMP_temperature;BMP_pressure;BME280_temperature;BME280_humidity;BME280_pressure;Samples;Min_cycle;Max_cycle;Signal;HPM_P1;HPM_P2
2023/05/06 00:01:17;;;;;;;11.80;10.20;;;;;;;19.55;64.20;98796.25;6947867;28;20199;-88
2023/05/06 00:04:40;;;;;;;11.67;10.17;;;;;;;19.88;63.75;98784.97;6947571;28;20329;-88
2023/05/06 00:08:01;;;;;;;12.90;9.93;;;;;;;20.17;63.37;98821.84;6948113;28;20298;-87
2023/05/06 00:11:23;;;;;;;10.47;9.20;;;;;;;20.12;63.37;98808.97;6948134;28;20354;-88
2023/05/06 00:14:44;;;;;;;9.73;8.73;;;;;;;20.31;62.88;98814.78;6947791;28;20317;-87
2023/05/06 00:18:06;;;;;;;9.90;8.77;;;;;;;20.09;62.79;98805.91;6950716;28;20353;-88
2023/05/06 00:21:29;;;;;;;12.73;10.10;;;;;;;19.64;64.57;98819.31;6971817;28;20202;-87
2023/05/06 00:24:50;;;;;;;10.93;9.83;;;;;;;19.73;64.58;98821.28;6974520;28;20278;-87
2023/05/06 00:28:13;;;;;;;11.50;9.43;;;;;;;19.34;63.79;98726.91;6968901;28;20253;-87
2023/05/06 00:31:35;;;;;;;12.37;10.40;;;;;;;19.81;63.37;98800.81;6956168;28;20287;-87
2023/05/06 00:34:56;;;;;;;11.70;10.40;;;;;;;19.67;63.82;98775.81;6974451;28;20262;-88
2023/05/06 00:38:19;;;;;;;11.43;10.23;;;;;;;19.62;63.57;98773.06;6974811;28;20289;-88
2023/05/06 00:41:40;;;;;;;13.87;9.87;;;;;;;19.63;63.18;98749.28;6974903;28;20298;-88
2023/05/06 00:45:02;;;;;;;15.47;10.47;;;;;;;19.11;64.85;98738.19;6974484;28;20313;-87
2023/05/06 00:48:24;;;;;;;12.97;10.67;;;;;;;19.45;64.17;98766.09;6975389;28;20205;-87
2023/05/06 00:51:46;;;;;;;11.60;10.40;;;;;;;19.18;64.28;98724.31;6974409;28;20286;-88
2023/05/06 00:55:09;;;;;;;14.43;10.13;;;;;;;19.83;63.57;98798.63;6974514;28;20377;-87
2023/05/06 00:58:31;;;;;;;11.67;9.90;;;;;;;18.92;63.66;98706.88;6975347;28;20255;-88
2023/05/06 01:01:52;;;;;;;11.70;10.53;;;;;;;19.61;63.65;98806.97;6974283;28;20335;-88
2023/05/06 01:05:14;;;;;;;16.40;12.00;;;;;;;19.14;64.13;98792.34;6974554;28;20230;-88
2023/05/06 01:08:39;;;;;;;14.90;11.73;;;;;;;19.31;64.52;98816.84;6975155;28;20230;-88
2023/05/06 01:12:07;;;;;;;15.53;11.47;;;;;;;19.53;63.88;98815.69;6976825;28;20210;-88
2023/05/06 01:15:33;;;;;;;12.87;11.47;;;;;;;19.40;64.23;98818.81;6980291;28;20232;-87
2023/05/06 01:18:55;;;;;;;16.30;14.80;;;;;;;19.35;64.21;98779.69;6980190;28;20191;-88
2023/05/06 01:22:16;;;;;;;15.07;11.40;;;;;;;19.52;63.65;98818.66;6983748;28;20209;-88
2023/05/06 01:25:39;;;;;;;11.73;10.53;;;;;;;19.52;63.86;98799.53;6983057;28;20367;-88
2023/05/06 01:29:02;;;;;;;13.27;11.53;;;;;;;19.01;63.76;98790.03;6974584;28;20368;-87
2023/05/06 01:32:35;;;;;;;14.20;12.17;;;;;;;19.09;64.78;98810.59;6978875;28;20253;-87
2023/05/06 01:36:04;;;;;;;12.97;10.57;;;;;;;19.40;64.60;98804.34;6979086;28;20226;-87
2023/05/06 01:39:26;;;;;;;12.73;11.50;;;;;;;19.35;63.99;98812.50;6980060;28;20323;-88
2023/05/06 01:42:49;;;;;;;11.73;10.53;;;;;;;18.68;63.47;98691.91;6979013;28;20268;-88
2023/05/06 01:46:15;;;;;;;14.43;10.73;;;;;;;18.72;63.59;98779.63;6978630;28;20717;-88
2023/05/06 01:49:38;;;;;;;16.43;9.90;;;;;;;18.78;63.12;98789.53;6978977;28;20656;-88
2023/05/06 01:53:00;;;;;;;12.30;11.10;;;;;;;18.66;63.80;98794.31;6978294;28;20202;-88
2023/05/06 01:56:21;;;;;;;14.03;11.10;;;;;;;18.82;64.16;98824.25;6978594;28;20249;-88
2023/05/06 01:59:44;;;;;;;17.10;11.40;;;;;;;18.86;64.13;98797.28;6978816;28;20659;-87
2023/05/06 02:03:06;;;;;;;12.47;10.50;;;;;;;18.87;63.67;98812.56;6978159;28;20276;-88
2023/05/06 02:06:27;;;;;;;10.10;9.07;;;;;;;18.96;62.83;98808.28;6978714;28;20258;-88
2023/05/06 02:09:49;;;;;;;12.87;9.63;;;;;;;18.26;64.23;98802.00;6978495;28;20198;-88
2023/05/06 02:13:11;;;;;;;13.57;10.37;;;;;;;18.42;63.31;98801.13;6977647;28;20214;-87
2023/05/06 02:16:34;;;;;;;12.77;10.93;;;;;;;18.45;64.33;98819.75;6978138;28;20237;-88
2023/05/06 02:19:55;;;;;;;11.30;9.80;;;;;;;18.68;62.92;98808.53;6978125;28;20765;-87
2023/05/06 02:23:17;;;;;;;13.27;10.60;;;;;;;18.36;64.31;98808.47;6976609;28;20301;-87
2023/05/06 02:26:38;;;;;;;12.53;11.23;;;;;;;18.51;64.10;98811.34;6978511;28;20313;-87
2023/05/06 02:30:00;;;;;;;13.97;10.90;;;;;;;18.54;63.66;98813.59;6964691;28;20211;-87
2023/05/06 02:33:23;;;;;;;14.93;10.87;;;;;;;18.32;63.65;98795.56;6949718;28;20214;-88
2023/05/06 02:36:45;;;;;;;11.43;10.23;;;;;;;17.98;64.77;98800.28;6949828;28;20242;-87
2023/05/06 02:40:08;;;;;;;10.40;9.20;;;;;;;18.49;62.97;98793.56;6950006;28;20723;-87
2023/05/06 02:43:30;;;;;;;16.00;9.53;;;;;;;18.27;62.97;98792.75;6950226;28;20556;-87
2023/05/06 02:46:51;;;;;;;12.47;11.13;;;;;;;17.63;65.75;98798.97;6949420;28;20357;-89
2023/05/06 02:50:15;;;;;;;11.93;10.13;;;;;;;18.04;64.59;98763.78;6949862;28;20223;-87
2023/05/06 02:53:37;;;;;;;10.27;9.13;;;;;;;18.57;62.85;98796.69;6949392;28;20219;-87
2023/05/06 02:56:58;;;;;;;10.67;9.57;;;;;;;18.50;63.06;98803.41;6949383;28;20223;-88
2023/05/06 03:00:20;;;;;;;10.37;9.23;;;;;;;18.36;62.85;98783.88;6949185;28;20210;-87
2023/05/06 03:03:42;;;;;;;10.20;9.20;;;;;;;18.54;62.71;98799.09;6948875;28;20649;-87
2023/05/06 03:07:05;;;;;;;9.43;8.40;;;;;;;18.56;62.65;98810.56;6949255;28;20333;-87
2023/05/06 03:10:26;;;;;;;10.00;8.70;;;;;;;18.47;62.64;98793.84;6950448;28;20207;-87
2023/05/06 03:13:48;;;;;;;9.97;8.87;;;;;;;17.84;62.91;98739.00;6948618;28;20199;-87
2023/05/06 03:17:09;;;;;;;11.07;9.60;;;;;;;18.22;63.58;98806.34;6948699;28;20287;-88
2023/05/06 03:20:30;;;;;;;12.67;9.13;;;;;;;18.30;63.17;98784.88;6949031;28;20237;-87
2023/05/06 03:23:53;;;;;;;9.50;8.30;;;;;;;18.15;62.46;98732.81;6948084;28;20211;-88
2023/05/06 03:27:15;;;;;;;12.17;9.53;;;;;;;18.18;62.32;98737.78;6947885;28;20254;-88
2023/05/06 03:30:36;;;;;;;10.47;8.73;;;;;;;18.22;62.63;98787.22;6950851;28;20344;-87
2023/05/06 03:33:58;;;;;;;9.47;8.40;;;;;;;18.38;62.39;98798.09;6947383;28;20293;-87
2023/05/06 03:37:19;;;;;;;10.27;8.37;;;;;;;18.13;62.98;98773.19;6949110;28;20818;-87
2023/05/06 03:40:42;;;;;;;8.60;7.47;;;;;;;18.25;61.91;98773.06;6948876;28;20199;-88
2023/05/06 03:44:04;;;;;;;9.10;8.20;;;;;;;18.37;62.19;98793.72;6949749;28;20279;-87
2023/05/06 03:47:26;;;;;;;8.63;7.77;;;;;;;18.38;62.29;98797.25;6954604;28;20320;-88
2023/05/06 03:50:47;;;;;;;9.33;8.43;;;;;;;18.06;61.75;98739.00;6950230;28;20200;-87
2023/05/06 03:54:09;;;;;;;8.73;7.60;;;;;;;18.27;61.79;98765.47;6950185;28;20380;-88
2023/05/06 03:57:32;;;;;;;9.63;8.63;;;;;;;17.86;61.69;98745.00;6950130;28;20206;-88
2023/05/06 04:00:53;;;;;;;10.83;9.40;;;;;;;18.02;62.48;98763.22;6949891;28;20228;-87
2023/05/06 04:04:15;;;;;;;10.50;9.03;;;;;;;17.20;63.53;98692.50;6949425;28;20235;-88
2023/05/06 04:07:36;;;;;;;10.03;9.07;;;;;;;17.86;62.90;98776.94;6953371;28;20214;-87
2023/05/06 04:10:58;;;;;;;11.13;9.23;;;;;;;17.81;63.29;98802.22;6949555;28;20253;-88
2023/05/06 04:14:21;;;;;;;10.67;9.20;;;;;;;17.15;63.81;98723.22;6949244;28;20325;-88
2023/05/06 04:17:42;;;;;;;9.93;8.50;;;;;;;17.79;62.62;98766.19;6949318;28;20218;-88
2023/05/06 04:21:04;;;;;;;10.67;9.57;;;;;;;17.45;64.15;98794.59;6949488;28;20680;-87
2023/05/06 04:24:27;;;;;;;12.87;8.90;;;;;;;17.80;63.54;98797.03;6948912;28;20261;-88
2023/05/06 04:27:48;;;;;;;9.17;7.83;;;;;;;17.63;63.03;98739.78;6949557;28;20199;-88
2023/05/06 04:31:13;;;;;;;10.60;8.17;;;;;;;17.72;62.67;98779.19;6948123;28;20297;-87
2023/05/06 04:34:35;;;;;;;9.43;7.93;;;;;;;18.04;62.25;98809.38;6949225;28;20244;-88
2023/05/06 04:37:56;;;;;;;9.07;8.20;;;;;;;17.52;62.16;98775.34;6949243;28;20234;-87
2023/05/06 04:41:19;;;;;;;10.30;8.57;;;;;;;17.83;61.79;98819.19;6948552;28;20664;-87
2023/05/06 04:44:42;;;;;;;9.53;7.40;;;;;;;17.19;63.13;98743.47;6948514;28;20226;-87
2023/05/06 04:48:08;;;;;;;10.80;8.33;;;;;;;16.80;63.25;98730.03;6963854;28;20210;-87
2023/05/06 04:51:30;;;;;;;9.70;8.70;;;;;;;17.45;64.03;98823.75;6982400;28;20297;-88
2023/05/06 04:54:52;;;;;;;10.63;8.70;;;;;;;17.29;64.35;98800.03;6981194;28;20237;-87
2023/05/06 04:58:14;;;;;;;9.57;7.50;;;;;;;17.48;63.26;98809.63;6980794;28;20656;-87
2023/05/06 05:01:36;;;;;;;7.87;6.73;;;;;;;17.92;62.22;98825.03;6982040;28;20233;-87
2023/05/06 05:04:59;;;;;;;11.47;7.57;;;;;;;17.45;61.40;98717.47;6982059;28;20229;-88
2023/05/06 05:08:20;;;;;;;9.17;7.03;;;;;;;18.08;61.31;98792.22;6983400;28;20214;-88
2023/05/06 05:11:42;;;;;;;7.67;6.97;;;;;;;17.60;62.64;98841.19;6982568;28;20266;-88
2023/05/06 05:15:04;;;;;;;8.00;7.20;;;;;;;17.95;62.57;98824.50;6982147;28;20313;-88
2023/05/06 05:18:26;;;;;;;7.00;6.40;;;;;;;17.75;61.68;98704.25;6981481;28;20297;-88
2023/05/06 05:21:49;;;;;;;7.13;6.53;;;;;;;18.78;61.44;98847.72;6980853;28;20666;-88
2023/05/06 05:25:11;;;;;;;6.77;6.07;;;;;;;18.62;59.43;98804.94;6980964;28;20267;-88
2023/05/06 05:28:32;;;;;;;6.73;6.10;;;;;;;18.71;60.42;98753.41;6980921;28;20293;-88
2023/05/06 05:31:54;;;;;;;6.07;5.50;;;;;;;19.08;58.93;98749.66;6980446;28;20289;-89
2023/05/06 05:35:15;;;;;;;6.60;5.70;;;;;;;19.52;59.18;98848.75;6980764;28;20222;-87
2023/05/06 05:38:39;;;;;;;6.53;5.80;;;;;;;19.41;58.84;98852.47;6980714;28;20348;-88
2023/05/06 05:42:01;;;;;;;6.70;5.70;;;;;;;19.31;59.58;98860.59;6981063;28;20207;-88
2023/05/06 05:45:22;;;;;;;6.20;5.70;;;;;;;19.54;60.49;98863.81;6980475;28;20251;-87
2023/05/06 05:48:44;;;;;;;7.37;6.60;;;;;;;20.15;59.14;98867.81;6973923;28;20229;-88
2023/05/06 05:52:06;;;;;;;6.00;5.50;;;;;;;19.88;58.65;98749.41;6979706;28;20206;-88
2023/05/06 05:55:30;;;;;;;6.43;5.83;;;;;;;20.57;58.01;98861.19;6977999;28;20231;-88
2023/05/06 05:58:52;;;;;;;7.63;6.00;;;;;;;20.67;56.66;98791.91;6979712;28;20223;-87
2023/05/06 06:02:14;;;;;;;7.33;6.63;;;;;;;21.07;57.51;98863.31;6978107;28;20219;-88
2023/05/06 06:05:35;;;;;;;6.60;6.00;;;;;;;20.78;58.33;98855.53;6955547;28;20223;-88
2023/05/06 06:08:57;;;;;;;8.63;5.93;;;;;;;20.88;56.59;98856.66;6953209;28;20742;-87
2023/05/06 06:12:19;;;;;;;6.37;5.77;;;;;;;20.21;58.62;98858.53;6966201;28;20205;-88
2023/05/06 06:15:42;;;;;;;8.03;6.20;;;;;;;20.39;59.85;98841.69;6969123;28;20723;-87
2023/05/06 06:19:03;;;;;;;6.37;5.77;;;;;;;20.95;57.45;98838.06;7006969;28;20294;-88
2023/05/06 06:22:25;;;;;;;6.47;5.87;;;;;;;20.86;57.56;98865.13;7006739;28;20577;-89
2023/05/06 06:25:46;;;;;;;6.70;5.80;;;;;;;20.87;58.66;98869.53;7007186;28;20226;-88
2023/05/06 06:29:09;;;;;;;9.27;5.20;;;;;;;20.59;57.05;98847.25;7006575;28;20210;-89
2023/05/06 06:32:31;;;;;;;8.43;5.70;;;;;;;20.99;57.27;98867.41;7007079;28;20290;-88
2023/05/06 06:35:52;;;;;;;6.37;5.67;;;;;;;21.19;55.42;98865.53;7006598;28;20265;-86
2023/05/06 06:39:14;;;;;;;4.83;4.43;;;;;;;21.08;54.93;98860.31;7007006;28;20629;-88
2023/05/06 06:42:35;;;;;;;6.37;4.80;;;;;;;20.68;55.12;98868.38;7006513;28;20212;-88
2023/05/06 06:45:58;;;;;;;8.27;4.77;;;;;;;20.67;54.32;98780.94;7000882;28;20230;-88
2023/05/06 06:49:20;;;;;;;5.30;4.77;;;;;;;21.54;52.52;98843.59;6974241;28;20217;-88
2023/05/06 06:52:41;;;;;;;6.40;4.30;;;;;;;21.83;52.60;98866.69;6978382;28;20203;-88
2023/05/06 06:56:09;;;;;;;4.80;4.40;;;;;;;21.50;51.75;98848.03;6977381;28;20229;-88
2023/05/06 06:59:30;;;;;;;4.40;4.00;;;;;;;21.75;50.71;98826.09;6978245;28;20211;-87
2023/05/06 07:02:54;;;;;;;4.77;4.27;;;;;;;21.69;51.26;98873.00;6977725;28;20194;-88
2023/05/06 07:06:15;;;;;;;4.90;4.17;;;;;;;21.85;53.14;98880.16;6958242;28;20236;-87
2023/05/06 07:09:38;;;;;;;7.60;5.00;;;;;;;22.66;51.54;98884.41;6950370;28;20665;-88
2023/05/06 07:13:00;;;;;;;4.50;4.10;;;;;;;22.84;49.84;98850.78;6949816;28;20244;-88
2023/05/06 07:16:21;;;;;;;6.63;4.87;;;;;;;22.22;50.40;98881.47;6958860;28;20237;-87
2023/05/06 07:19:44;;;;;;;4.90;3.83;;;;;;;22.13;49.10;98877.63;6950745;28;20346;-87
2023/05/06 07:23:05;;;;;;;4.53;4.13;;;;;;;21.72;50.14;98818.38;6950240;28;20204;-87
2023/05/06 07:26:27;;;;;;;4.80;4.37;;;;;;;22.73;49.09;98887.66;6950704;28;20305;-87
2023/05/06 07:29:48;;;;;;;5.17;4.60;;;;;;;23.10;47.77;98835.75;6950410;28;20222;-88
2023/05/06 07:33:10;;;;;;;4.60;4.17;;;;;;;23.89;44.63;98888.63;6950039;28;20288;-88
2023/05/06 07:36:39;;;;;;;5.40;4.90;;;;;;;23.12;46.88;98870.13;6953200;28;20234;-88
2023/05/06 07:40:00;;;;;;;6.57;4.00;;;;;;;23.20;47.48;98894.31;6954973;28;20201;-88
2023/05/06 07:43:22;;;;;;;4.27;3.87;;;;;;;22.48;46.80;98890.50;6955628;28;20240;-88
2023/05/06 07:46:44;;;;;;;4.03;3.70;;;;;;;22.74;47.59;98886.56;6950958;28;20227;-88
2023/05/06 07:50:06;;;;;;;3.83;3.30;;;;;;;23.99;45.20;98891.28;6951154;28;20203;-88
2023/05/06 07:53:29;;;;;;;4.10;3.50;;;;;;;23.95;44.92;98884.72;6970706;28;20337;-89
2023/05/06 07:56:57;;;;;;;3.80;3.50;;;;;;;23.48;45.02;98896.34;6950661;28;20223;-88
2023/05/06 08:00:19;;;;;;;4.40;3.63;;;;;;;23.76;44.88;98894.75;6977981;28;20302;-87
2023/05/06 08:03:41;;;;;;;4.67;3.87;;;;;;;25.13;42.05;98888.34;6977749;28;20254;-87
2023/05/06 08:07:02;;;;;;;4.43;4.03;;;;;;;24.86;41.86;98855.03;6978482;28;20307;-87
2023/05/06 08:10:25;;;;;;;5.20;3.97;;;;;;;23.04;45.14;98837.72;6977275;28;20266;-88
2023/05/06 08:13:47;;;;;;;4.37;3.97;;;;;;;23.72;45.18;98882.69;6976997;28;20256;-88
2023/05/06 08:17:08;;;;;;;4.10;3.70;;;;;;;22.86;46.12;98826.56;6977945;28;20329;-87
2023/05/06 08:20:30;;;;;;;4.20;3.80;;;;;;;22.83;45.48;98898.63;6978327;28;20250;-88
2023/05/06 08:23:51;;;;;;;4.07;3.10;;;;;;;24.61;42.25;98875.47;6965969;28;20214;-87
2023/05/06 08:27:14;;;;;;;3.43;3.17;;;;;;;25.38;40.58;98886.09;6975976;28;20293;-87
2023/05/06 08:30:36;;;;;;;3.93;3.63;;;;;;;25.42;40.73;98905.63;6978700;28;20249;-87
2023/05/06 08:33:57;;;;;;;3.43;3.13;;;;;;;26.19;37.88;98886.41;6978940;28;20202;-87
2023/05/06 08:37:19;;;;;;;3.37;3.07;;;;;;;24.97;41.72;98908.97;6977872;28;20231;-87
2023/05/06 08:40:43;;;;;;;3.37;3.07;;;;;;;23.45;42.82;98907.94;6976252;28;20364;-87
2023/05/06 08:44:08;;;;;;;3.90;3.57;;;;;;;23.29;44.55;98872.53;6983189;28;20205;-87
2023/05/06 08:47:29;;;;;;;3.80;3.50;;;;;;;23.17;44.53;98877.56;6983373;28;20778;-87
2023/05/06 08:50:51;;;;;;;4.13;3.33;;;;;;;24.47;42.67;98881.97;6978874;28;20225;-87
2023/05/06 08:54:13;;;;;;;4.00;2.90;;;;;;;24.97;39.76;98804.97;6977638;28;20342;-87
2023/05/06 08:57:42;;;;;;;2.60;2.40;;;;;;;26.57;36.40;98871.34;6976608;28;20320;-87
2023/05/06 09:01:05;;;;;;;4.67;2.73;;;;;;;25.77;37.16;98858.13;6948382;28;20320;-87
2023/05/06 09:04:26;;;;;;;2.43;2.23;;;;;;;25.62;38.39;98867.47;6949273;28;20260;-86
2023/05/06 09:07:48;;;;;;;2.93;2.30;;;;;;;25.62;37.59;98800.38;6949932;28;20341;-87
2023/05/06 09:11:21;;;;;;;3.07;2.50;;;;;;;25.25;37.75;98894.28;6950176;28;20344;-88
2023/05/06 09:14:42;;;;;;;2.83;2.53;;;;;;;24.48;39.17;98889.13;6949497;28;20302;-87
2023/05/06 09:18:06;;;;;;;3.40;2.37;;;;;;;26.06;38.07;98864.25;6949836;28;20365;-87
2023/05/06 09:21:33;;;;;;;2.60;2.40;;;;;;;27.07;35.01;98891.59;6950693;28;20279;-88
2023/05/06 09:24:56;;;;;;;6.67;4.77;;;;;;;26.18;36.90;98876.47;6948995;28;20302;-88
2023/05/06 09:28:17;;;;;;;3.00;2.77;;;;;;;25.04;38.00;98895.63;6950012;28;20200;-88
2023/05/06 09:31:43;;;;;;;4.17;2.50;;;;;;;25.30;38.64;98841.78;6949957;28;20273;-85
2023/05/06 09:35:08;;;;;;;3.67;2.13;;;;;;;25.93;35.95;98769.16;6955128;28;20252;-86
2023/05/06 09:38:29;;;;;;;2.27;2.07;;;;;;;26.93;33.15;98847.34;6954751;28;20312;-89
2023/05/06 09:41:57;;;;;;;5.97;3.60;;;;;;;26.84;32.96;98791.06;6955837;28;20224;-89
2023/05/06 09:45:18;;;;;;;3.33;2.00;;;;;;;25.58;34.73;98891.28;6954599;28;20317;-84
2023/05/06 09:48:40;;;;;;;2.83;2.37;;;;;;;26.47;33.59;98882.56;6953585;28;20245;-85
2023/05/06 09:52:04;;;;;;;2.13;1.67;;;;;;;27.01;33.18;98859.63;6952619;28;20343;-85
2023/05/06 09:55:27;;;;;;;8.27;3.03;;;;;;;27.51;32.62;98856.56;6953507;28;20337;-84
2023/05/06 09:58:50;;;;;;;2.10;1.90;;;;;;;27.50;32.38;98810.59;6954006;28;20763;-92
2023/05/06 10:02:12;;;;;;;7.47;2.40;;;;;;;27.66;31.95;98872.00;6954053;28;20251;-85
2023/05/06 10:05:36;;;;;;;2.73;2.37;;;;;;;27.44;32.29;98871.97;6954277;28;20302;-86
2023/05/06 10:08:59;;;;;;;3.27;2.50;;;;;;;27.67;32.61;98863.34;6956898;28;20268;-86
2023/05/06 10:12:21;;;;;;;4.73;3.23;;;;;;;27.30;34.10;98794.47;6955387;28;20298;-84
2023/05/06 10:15:46;;;;;;;4.37;2.00;;;;;;;27.14;33.62;98842.16;6953926;28;20721;-88
2023/05/06 10:19:08;;;;;;;6.40;3.13;;;;;;;26.93;33.48;98841.81;6953854;28;20232;-89
2023/05/06 10:22:36;;;;;;;2.23;2.03;;;;;;;25.68;36.60;98824.00;6953069;28;20207;-86
2023/05/06 10:26:06;;;;;;;2.27;2.07;;;;;;;26.28;35.00;98839.53;6953034;28;20273;-90
2023/05/06 10:29:27;;;;;;;2.07;1.97;;;;;;;25.84;35.92;98811.59;6953388;28;20222;-88
2023/05/06 10:32:52;;;;;;;2.30;2.10;;;;;;;26.42;34.63;98796.13;6971730;28;20286;-89
2023/05/06 10:36:19;;;;;;;2.43;2.13;;;;;;;25.61;35.59;98840.16;6980981;28;20273;-89
2023/05/06 10:39:40;;;;;;;2.30;2.00;;;;;;;25.81;35.00;98767.97;6980907;28;20187;-89
2023/05/06 10:43:22;;;;;;;2.27;2.03;;;;;;;26.34;34.36;98835.53;6978703;28;20209;-82
2023/05/06 10:46:59;;;;;;;2.30;2.10;;;;;;;26.10;34.91;98818.31;6973349;28;20229;-88
2023/05/06 10:50:21;;;;;;;2.00;1.77;;;;;;;27.13;32.89;98785.97;6978967;28;20270;-88
2023/05/06 10:54:01;;;;;;;3.23;1.90;;;;;;;27.77;31.41;98816.03;6980355;28;20664;-88
2023/05/06 10:57:40;;;;;;;1.90;1.80;;;;;;;26.61;32.72;98792.13;6980446;28;20238;-88
2023/05/06 11:01:03;;;;;;;1.73;1.53;;;;;;;27.58;31.83;98787.66;6980438;28;20228;-86
2023/05/06 11:04:24;;;;;;;1.57;1.47;;;;;;;27.21;31.35;98759.53;6979826;28;20240;-88
2023/05/06 11:07:49;;;;;;;2.00;1.77;;;;;;;27.58;30.13;98781.31;6972836;28;20220;-90
2023/05/06 11:11:48;;;;;;;2.33;1.60;;;;;;;27.93;31.49;98788.72;6966996;28;20241;-90
2023/05/06 11:15:24;;;;;;;2.83;1.77;;;;;;;28.24;30.05;98770.13;6952266;28;20245;-90
2023/05/06 11:18:47;;;;;;;1.70;1.40;;;;;;;29.10;28.38;98758.13;6953169;28;20257;-90
2023/05/06 11:22:08;;;;;;;1.93;1.63;;;;;;;28.18;29.69;98788.06;6953182;28;20206;-91
2023/05/06 11:25:40;;;;;;;2.80;1.77;;;;;;;27.65;30.04;98768.66;6953024;28;20323;-90
2023/05/06 11:29:03;;;;;;;1.60;1.50;;;;;;;27.92;28.22;98784.31;6952898;28;20277;-90
2023/05/06 11:32:25;;;;;;;3.43;1.67;;;;;;;25.43;30.95;98772.78;6952674;28;20244;-90
2023/05/06 11:35:48;;;;;;;1.50;1.40;;;;;;;26.98;30.07;98681.16;6952341;28;20252;-91
2023/05/06 11:39:09;;;;;;;1.87;1.30;;;;;;;26.59;28.74;98724.41;6952583;28;20287;-88
2023/05/06 11:42:31;;;;;;;1.63;1.23;;;;;;;28.55;27.77;98782.03;6951465;28;20569;-89
2023/05/06 11:45:52;;;;;;;1.57;1.40;;;;;;;28.91;27.04;98758.41;6951532;28;20321;-90
2023/05/06 11:49:14;;;;;;;1.10;1.00;;;;;;;29.52;26.56;98762.84;6973418;28;20230;-90
2023/05/06 11:52:37;;;;;;;1.97;1.60;;;;;;;27.88;29.04;98733.41;6952688;28;20789;-89
2023/05/06 11:56:08;;;;;;;4.10;1.60;;;;;;;27.49;30.48;98772.94;6975002;28;20753;-89
2023/05/06 11:59:31;;;;;;;2.43;1.60;;;;;;;27.49;29.43;98770.16;6978142;28;20236;-89
2023/05/06 12:02:55;;;;;;;1.90;1.80;;;;;;;28.71;28.40;98774.88;6977959;28;20299;-89
2023/05/06 12:06:17;;;;;;;6.13;2.83;;;;;;;29.56;27.39;98764.69;6978182;28;20228;-89
2023/05/06 12:09:43;;;;;;;3.27;2.07;;;;;;;28.80;28.05;98698.81;6978627;28;20208;-88
2023/05/06 12:13:05;;;;;;;1.80;1.70;;;;;;;30.04;28.01;98770.78;6978878;28;20296;-90
2023/05/06 12:16:27;;;;;;;1.73;1.47;;;;;;;29.63;27.53;98742.75;6980964;28;20234;-89
2023/05/06 12:19:49;;;;;;;4.83;2.00;;;;;;;29.04;27.21;98732.50;6990345;28;20208;-91
2023/05/06 12:23:11;;;;;;;2.93;1.33;;;;;;;29.05;26.92;98764.66;6985038;28;20205;-85
2023/05/06 12:26:58;;;;;;;1.57;1.40;;;;;;;29.22;28.14;98756.34;6970262;28;20297;-87
2023/05/06 12:30:29;;;;;;;2.50;1.67;;;;;;;28.93;28.61;98746.97;6865397;28;20848;-83
2023/05/06 12:33:50;;;;;;;1.40;1.30;;;;;;;29.71;27.49;98755.81;6887715;28;20212;-86
2023/05/06 12:37:24;;;;;;;6.10;2.30;;;;;;;28.87;28.63;98753.81;6891528;28;20273;-85
2023/05/06 12:40:53;;;;;;;1.67;1.57;;;;;;;29.89;26.28;98754.63;6885831;28;20206;-86
2023/05/06 12:44:35;;;;;;;1.40;1.30;;;;;;;29.19;27.92;98756.97;6864557;28;20195;-87
2023/05/06 12:47:57;;;;;;;1.47;1.30;;;;;;;28.59;27.71;98758.00;6885220;28;20213;-87
2023/05/06 12:51:20;;;;;;;3.27;1.90;;;;;;;29.45;27.22;98755.03;6892631;28;20234;-87
2023/05/06 12:54:41;;;;;;;1.50;1.33;;;;;;;28.24;28.47;98757.06;6866282;28;20568;-87
2023/05/06 12:58:14;;;;;;;3.10;1.10;;;;;;;26.81;29.86;98747.44;6865041;28;20726;-88
2023/05/06 13:01:37;;;;;;;1.63;1.53;;;;;;;27.66;29.19;98739.78;6865999;28;20400;-87
2023/05/06 13:05:00;;;;;;;1.60;1.37;;;;;;;27.07;29.54;98687.56;6865389;28;20222;-88
2023/05/06 13:08:22;;;;;;;2.80;1.30;;;;;;;28.24;27.60;98747.94;6944144;28;20208;-87
2023/05/06 13:11:43;;;;;;;3.00;1.40;;;;;;;28.43;28.05;98741.00;6955212;28;20233;-87
2023/05/06 13:15:06;;;;;;;3.40;1.50;;;;;;;28.00;28.69;98728.09;6955380;28;20298;-87
2023/05/06 13:18:29;;;;;;;1.60;1.33;;;;;;;27.28;30.44;98729.44;6955560;28;20226;-87
2023/05/06 13:21:51;;;;;;;3.27;1.60;;;;;;;27.06;29.32;98716.38;6954981;28;20214;-87
2023/05/06 13:25:12;;;;;;;1.33;1.23;;;;;;;26.93;30.82;98719.22;6955300;28;20235;-86
2023/05/06 13:28:35;;;;;;;3.40;1.50;;;;;;;26.96;30.00;98666.81;6955282;28;20215;-87
2023/05/06 13:31:56;;;;;;;1.67;1.53;;;;;;;28.18;28.20;98715.97;6954330;28;20219;-88
2023/05/06 13:35:19;;;;;;;1.00;1.00;;;;;;;28.83;27.56;98697.34;6954941;28;20236;-87
2023/05/06 13:38:41;;;;;;;2.13;1.47;;;;;;;28.93;27.19;98692.28;6954822;28;20596;-87
2023/05/06 13:42:03;;;;;;;1.33;1.23;;;;;;;27.55;29.52;98624.84;6999944;28;20223;-82
2023/05/06 13:45:25;;;;;;;1.87;1.40;;;;;;;28.63;27.45;98681.31;6985400;28;20591;-87
2023/05/06 13:48:46;;;;;;;1.23;1.17;;;;;;;28.59;27.15;98683.09;6985246;28;20690;-88
2023/05/06 13:52:09;;;;;;;2.20;1.53;;;;;;;27.57;29.16;98666.09;6996306;28;20208;-88
2023/05/06 13:55:38;;;;;;;1.70;1.33;;;;;;;27.18;30.33;98686.22;6987161;28;20276;-87
2023/05/06 13:59:00;;;;;;;1.20;1.20;;;;;;;27.60;29.04;98674.59;6993107;28;20228;-88
2023/05/06 14:02:21;;;;;;;1.37;1.27;;;;;;;27.42;29.10;98661.78;6981572;28;20293;-88
2023/05/06 14:05:44;;;;;;;1.77;1.20;;;;;;;27.37;29.39;98658.34;6981650;28;20362;-89
2023/05/06 14:09:07;;;;;;;2.20;1.53;;;;;;;27.06;29.36;98597.38;6974015;28;20205;-88
2023/05/06 14:12:29;;;;;;;1.60;1.30;;;;;;;28.20;28.67;98672.09;6953583;28;20200;-88
2023/05/06 14:15:50;;;;;;;1.67;1.40;;;;;;;27.42;28.94;98664.53;6954130;28;20288;-88
2023/05/06 14:19:12;;;;;;;1.00;1.00;;;;;;;27.79;28.16;98661.31;6953088;28;20315;-87
2023/05/06 14:22:33;;;;;;;1.30;1.20;;;;;;;28.09;28.09;98660.47;6952496;28;20238;-88
2023/05/06 14:25:56;;;;;;;1.07;1.07;;;;;;;27.50;28.28;98632.50;6952237;28;20238;-88
2023/05/06 14:29:18;;;;;;;1.30;1.20;;;;;;;26.40;29.79;98660.13;6953598;28;20576;-86
2023/05/06 14:32:39;;;;;;;2.13;1.60;;;;;;;26.64;29.65;98647.69;6952615;28;20310;-87
2023/05/06 14:36:02;;;;;;;1.80;1.60;;;;;;;26.91;29.35;98621.84;6953014;28;20256;-88
2023/05/06 14:39:23;;;;;;;1.30;1.20;;;;;;;26.59;29.12;98622.06;6954002;28;20223;-85
2023/05/06 14:42:46;;;;;;;1.47;1.10;;;;;;;25.21;30.81;98650.31;6950732;28;20251;-87
2023/05/06 14:46:08;;;;;;;1.60;1.50;;;;;;;27.12;30.14;98640.41;6953083;28;20349;-89
2023/05/06 14:49:29;;;;;;;1.10;1.10;;;;;;;26.30;29.84;98583.75;6954380;28;20215;-90
2023/05/06 14:52:51;;;;;;;1.53;1.33;;;;;;;26.75;28.51;98632.50;6990828;28;20780;-88
2023/05/06 14:56:12;;;;;;;2.70;1.63;;;;;;;26.48;28.82;98640.84;6993082;28;20699;-88
2023/05/06 14:59:35;;;;;;;1.50;1.07;;;;;;;26.24;29.40;98637.53;6957477;28;20305;-88
2023/05/06 15:02:58;;;;;;;1.00;1.00;;;;;;;27.18;28.99;98628.09;6951949;28;20204;-88
2023/05/06 15:06:19;;;;;;;1.40;1.27;;;;;;;27.03;28.23;98625.69;6952194;28;20229;-87
2023/05/06 15:09:42;;;;;;;1.70;1.47;;;;;;;27.66;27.39;98614.31;6952249;28;20260;-88
2023/05/06 15:13:04;;;;;;;1.97;1.30;;;;;;;26.60;28.34;98583.06;6952012;28;20200;-88
2023/05/06 15:16:27;;;;;;;1.53;1.43;;;;;;;27.18;27.95;98605.13;6980000;28;20240;-88
2023/05/06 15:19:48;;;;;;;1.23;1.13;;;;;;;26.91;27.96;98628.22;7007870;28;20263;-87
2023/05/06 15:23:10;;;;;;;2.17;1.97;;;;;;;27.00;27.71;98614.41;7006919;28;20217;-88
2023/05/06 15:26:31;;;;;;;1.70;1.47;;;;;;;27.18;27.65;98617.00;7007187;28;20224;-88
2023/05/06 15:29:53;;;;;;;1.50;1.40;;;;;;;27.73;26.59;98606.34;7005895;28;20210;-89
2023/05/06 15:33:16;;;;;;;1.67;1.10;;;;;;;27.54;27.65;98639.03;7006605;28;20773;-88
2023/05/06 15:36:38;;;;;;;1.60;1.10;;;;;;;27.31;26.99;98602.25;7007244;28;20226;-88
2023/05/06 15:39:59;;;;;;;3.90;1.40;;;;;;;27.36;26.72;98626.25;6995341;28;20315;-89
2023/05/06 15:43:21;;;;;;;2.30;1.23;;;;;;;26.52;28.55;98561.66;7007313;28;20205;-89
2023/05/06 15:46:42;;;;;;;1.87;1.50;;;;;;;26.97;26.97;98545.88;6998546;28;20253;-87
2023/05/06 15:50:06;;;;;;;1.17;1.17;;;;;;;27.47;26.88;98559.16;6978811;28;20207;-87